sensor_id;sensor_type;location;lat;lon;timestamp;P1;durP1;ratioP1;P2;durP2;ratioP2
61487;SDS011;47351;53.326;-6.298;2024-03-29T00:00:41;10.70;;;6.10;;
61487;SDS011;47351;53.326;-6.298;2024-03-29T00:03:36;9.80;;;5.70;;
61487;SDS011;47351;53.326;-6.298;2024-03-29T00:06:31;7.70;;;3.90;;
61487;SDS011;47351;53.326;-6.298;2024-03-29T00:09:22;9.70;;;4.60;;
61487;SDS011;47351;53.326;-6.298;2024-03-29T00:12:14;9.10;;;5.40;;
61487;SDS011;47351;53.326;-6.298;2024-03-29T00:15:08;10.90;;;5.10;;
61487;SDS011;47351;53.326;-6.298;2024-03-29T00:18:01;9.90;;;5.20;;
61487;SDS011;47351;53.326;-6.298;2024-03-29T00:20:53;8.90;;;5.40;;
61487;SDS011;47351;53.326;-6.298;2024-03-29T00:23:47;10.10;;;5.20;;
61487;SDS011;47351;53.326;-6.298;2024-03-29T00:26:39;9.80;;;5.40;;
61487;SDS011;47351;53.326;-6.298;2024-03-29T00:29:31;7.40;;;4.30;;
61487;SDS011;47351;53.326;-6.298;2024-03-29T00:32:24;7.70;;;3.60;;
61487;SDS011;47351;53.326;-6.298;2024-03-29T00:35:19;6.00;;;2.80;;
61487;SDS011;47351;53.326;-6.298;2024-03-29T00:38:17;8.80;;;2.40;;
61487;SDS011;47351;53.326;-6.298;2024-03-29T00:41:12;4.90;;;2.40;;
61487;SDS011;47351;53.326;-6.298;2024-03-29T00:44:04;8.40;;;2.20;;
61487;SDS011;47351;53.326;-6.298;2024-03-29T00:46:58;6.60;;;2.30;;
61487;SDS011;47351;53.326;-6.298;2024-03-29T00:49:49;5.60;;;2.20;;
61487;SDS011;47351;53.326;-6.298;2024-03-29T00:53:00;7.60;;;2.20;;
61487;SDS011;47351;53.326;-6.298;2024-03-29T00:56:03;4.90;;;2.30;;
61487;SDS011;47351;53.326;-6.298;2024-03-29T00:59:02;6.50;;;2.50;;
61487;SDS011;47351;53.326;-6.298;2024-03-29T01:01:57;5.60;;;2.20;;
61487;SDS011;47351;53.326;-6.298;2024-03-29T01:04:54;6.90;;;2.50;;
61487;SDS011;47351;53.326;-6.298;2024-03-29T01:07:46;4.60;;;2.50;;
61487;SDS011;47351;53.326;-6.298;2024-03-29T01:10:38;9.30;;;2.60;;
61487;SDS011;47351;53.326;-6.298;2024-03-29T01:13:39;6.10;;;1.60;;
61487;SDS011;47351;53.326;-6.298;2024-03-29T01:16:34;7.60;;;2.60;;
61487;SDS011;47351;53.326;-6.298;2024-03-29T01:19:26;6.90;;;3.70;;
61487;SDS011;47351;53.326;-6.298;2024-03-29T01:22:20;6.90;;;2.70;;
61487;SDS011;47351;53.326;-6.298;2024-03-29T01:25:11;6.20;;;1.60;;
61487;SDS011;47351;53.326;-6.298;2024-03-29T01:28:06;3.20;;;1.50;;
61487;SDS011;47351;53.326;-6.298;2024-03-29T01:31:01;8.80;;;1.60;;
61487;SDS011;47351;53.326;-6.298;2024-03-29T01:33:53;7.80;;;1.60;;
61487;SDS011;47351;53.326;-6.298;2024-03-29T01:36:47;7.90;;;1.90;;
61487;SDS011;47351;53.326;-6.298;2024-03-29T01:39:39;5.20;;;1.50;;
61487;SDS011;47351;53.326;-6.298;2024-03-29T01:42:30;3.50;;;1.30;;
61487;SDS011;47351;53.326;-6.298;2024-03-29T01:45:22;7.70;;;2.10;;
61487;SDS011;47351;53.326;-6.298;2024-03-29T01:48:14;4.80;;;1.40;;
61487;SDS011;47351;53.326;-6.298;2024-03-29T01:51:20;8.00;;;1.40;;
61487;SDS011;47351;53.326;-6.298;2024-03-29T01:54:13;5.20;;;1.30;;
61487;SDS011;47351;53.326;-6.298;2024-03-29T01:57:05;4.80;;;1.40;;
61487;SDS011;47351;53.326;-6.298;2024-03-29T01:59:57;4.70;;;1.30;;
61487;SDS011;47351;53.326;-6.298;2024-03-29T02:02:49;3.90;;;1.20;;
61487;SDS011;47351;53.326;-6.298;2024-03-29T02:05:41;5.70;;;1.20;;
61487;SDS011;47351;53.326;-6.298;2024-03-29T02:08:33;5.00;;;1.20;;
61487;SDS011;47351;53.326;-6.298;2024-03-29T02:11:27;3.20;;;1.10;;
61487;SDS011;47351;53.326;-6.298;2024-03-29T02:14:25;4.40;;;1.00;;
61487;SDS011;47351;53.326;-6.298;2024-03-29T02:17:16;6.30;;;1.20;;
61487;SDS011;47351;53.326;-6.298;2024-03-29T02:20:09;6.70;;;1.10;;
61487;SDS011;47351;53.326;-6.298;2024-03-29T02:23:14;4.50;;;1.10;;
61487;SDS011;47351;53.326;-6.298;2024-03-29T02:26:09;5.30;;;1.10;;
61487;SDS011;47351;53.326;-6.298;2024-03-29T02:29:01;8.60;;;1.10;;
61487;SDS011;47351;53.326;-6.298;2024-03-29T02:31:53;7.30;;;1.50;;
61487;SDS011;47351;53.326;-6.298;2024-03-29T02:34:44;6.20;;;1.30;;
61487;SDS011;47351;53.326;-6.298;2024-03-29T02:37:36;7.40;;;1.70;;
61487;SDS011;47351;53.326;-6.298;2024-03-29T02:40:28;5.50;;;1.10;;
61487;SDS011;47351;53.326;-6.298;2024-03-29T02:43:19;8.40;;;1.60;;
61487;SDS011;47351;53.326;-6.298;2024-03-29T02:46:11;8.90;;;1.10;;
61487;SDS011;47351;53.326;-6.298;2024-03-29T02:49:03;5.90;;;1.20;;
61487;SDS011;47351;53.326;-6.298;2024-03-29T02:51:55;5.30;;;1.10;;
61487;SDS011;47351;53.326;-6.298;2024-03-29T02:54:47;7.00;;;1.50;;
61487;SDS011;47351;53.326;-6.298;2024-03-29T02:57:38;7.60;;;1.50;;
61487;SDS011;47351;53.326;-6.298;2024-03-29T03:00:34;4.10;;;1.10;;
61487;SDS011;47351;53.326;-6.298;2024-03-29T03:03:30;8.90;;;1.30;;
61487;SDS011;47351;53.326;-6.298;2024-03-29T03:06:22;6.30;;;1.40;;
61487;SDS011;47351;53.326;-6.298;2024-03-29T03:09:14;6.90;;;1.10;;
61487;SDS011;47351;53.326;-6.298;2024-03-29T03:12:43;5.70;;;1.10;;
61487;SDS011;47351;53.326;-6.298;2024-03-29T03:15:35;7.00;;;1.40;;
61487;SDS011;47351;53.326;-6.298;2024-03-29T03:18:27;7.30;;;1.50;;
61487;SDS011;47351;53.326;-6.298;2024-03-29T03:21:21;11.90;;;3.10;;
61487;SDS011;47351;53.326;-6.298;2024-03-29T03:24:12;11.50;;;5.60;;
61487;SDS011;47351;53.326;-6.298;2024-03-29T03:27:07;9.00;;;1.90;;
61487;SDS011;47351;53.326;-6.298;2024-03-29T03:30:10;8.30;;;1.50;;
61487;SDS011;47351;53.326;-6.298;2024-03-29T03:33:11;10.20;;;1.60;;
61487;SDS011;47351;53.326;-6.298;2024-03-29T03:36:03;9.60;;;1.60;;
61487;SDS011;47351;53.326;-6.298;2024-03-29T03:39:00;8.40;;;1.50;;
61487;SDS011;47351;53.326;-6.298;2024-03-29T03:41:55;6.90;;;1.30;;
61487;SDS011;47351;53.326;-6.298;2024-03-29T03:44:47;11.20;;;1.30;;
61487;SDS011;47351;53.326;-6.298;2024-03-29T03:47:39;7.00;;;1.10;;
61487;SDS011;47351;53.326;-6.298;2024-03-29T03:50:30;8.70;;;1.50;;
61487;SDS011;47351;53.326;-6.298;2024-03-29T03:53:22;7.00;;;1.20;;
61487;SDS011;47351;53.326;-6.298;2024-03-29T03:56:16;7.50;;;1.20;;
61487;SDS011;47351;53.326;-6.298;2024-03-29T03:59:08;7.20;;;1.60;;
61487;SDS011;47351;53.326;-6.298;2024-03-29T04:02:03;10.20;;;1.50;;
61487;SDS011;47351;53.326;-6.298;2024-03-29T04:04:57;10.20;;;1.60;;
61487;SDS011;47351;53.326;-6.298;2024-03-29T04:07:48;5.60;;;1.10;;
61487;SDS011;47351;53.326;-6.298;2024-03-29T04:10:42;10.40;;;1.40;;
61487;SDS011;47351;53.326;-6.298;2024-03-29T04:13:34;10.50;;;1.50;;
61487;SDS011;47351;53.326;-6.298;2024-03-29T04:16:27;8.40;;;1.50;;
61487;SDS011;47351;53.326;-6.298;2024-03-29T04:19:18;10.50;;;1.50;;
61487;SDS011;47351;53.326;-6.298;2024-03-29T04:22:10;7.50;;;1.40;;
61487;SDS011;47351;53.326;-6.298;2024-03-29T04:25:02;4.80;;;1.20;;
61487;SDS011;47351;53.326;-6.298;2024-03-29T04:27:53;5.90;;;1.30;;
61487;SDS011;47351;53.326;-6.298;2024-03-29T04:30:51;9.20;;;1.50;;
61487;SDS011;47351;53.326;-6.298;2024-03-29T04:33:42;6.60;;;1.20;;
61487;SDS011;47351;53.326;-6.298;2024-03-29T04:36:34;4.70;;;1.30;;
61487;SDS011;47351;53.326;-6.298;2024-03-29T04:39:25;2.60;;;0.90;;
61487;SDS011;47351;53.326;-6.298;2024-03-29T04:42:17;4.60;;;1.00;;
61487;SDS011;47351;53.326;-6.298;2024-03-29T04:45:09;5.60;;;1.10;;
61487;SDS011;47351;53.326;-6.298;2024-03-29T04:48:00;3.10;;;0.80;;
61487;SDS011;47351;53.326;-6.298;2024-03-29T04:50:55;3.70;;;0.90;;
61487;SDS011;47351;53.326;-6.298;2024-03-29T04:53:47;4.10;;;0.90;;
61487;SDS011;47351;53.326;-6.298;2024-03-29T04:56:42;4.00;;;1.10;;
61487;SDS011;47351;53.326;-6.298;2024-03-29T04:59:33;4.40;;;1.50;;
61487;SDS011;47351;53.326;-6.298;2024-03-29T05:02:25;7.50;;;3.10;;
61487;SDS011;47351;53.326;-6.298;2024-03-29T05:05:19;6.50;;;2.30;;
61487;SDS011;47351;53.326;-6.298;2024-03-29T05:08:11;5.90;;;2.00;;
61487;SDS011;47351;53.326;-6.298;2024-03-29T05:11:03;8.60;;;1.80;;
61487;SDS011;47351;53.326;-6.298;2024-03-29T05:13:56;8.70;;;1.70;;
61487;SDS011;47351;53.326;-6.298;2024-03-29T05:16:49;12.50;;;1.90;;
61487;SDS011;47351;53.326;-6.298;2024-03-29T05:19:41;6.20;;;1.60;;
61487;SDS011;47351;53.326;-6.298;2024-03-29T05:22:36;7.80;;;1.60;;
61487;SDS011;47351;53.326;-6.298;2024-03-29T05:25:28;9.60;;;1.60;;
61487;SDS011;47351;53.326;-6.298;2024-03-29T05:28:25;5.20;;;1.40;;
61487;SDS011;47351;53.326;-6.298;2024-03-29T05:31:20;6.90;;;1.50;;
61487;SDS011;47351;53.326;-6.298;2024-03-29T05:34:15;19.20;;;3.50;;
61487;SDS011;47351;53.326;-6.298;2024-03-29T05:37:12;18.10;;;4.40;;
61487;SDS011;47351;53.326;-6.298;2024-03-29T05:40:11;8.70;;;2.10;;
61487;SDS011;47351;53.326;-6.298;2024-03-29T05:43:06;18.20;;;4.60;;
61487;SDS011;47351;53.326;-6.298;2024-03-29T05:46:00;10.60;;;2.10;;
61487;SDS011;47351;53.326;-6.298;2024-03-29T05:49:03;10.10;;;1.40;;
61487;SDS011;47351;53.326;-6.298;2024-03-29T05:51:55;7.30;;;1.80;;
61487;SDS011;47351;53.326;-6.298;2024-03-29T05:54:47;6.70;;;1.30;;
61487;SDS011;47351;53.326;-6.298;2024-03-29T05:57:41;5.90;;;1.50;;
61487;SDS011;47351;53.326;-6.298;2024-03-29T06:00:35;3.60;;;1.00;;
61487;SDS011;47351;53.326;-6.298;2024-03-29T06:03:39;4.00;;;1.10;;
61487;SDS011;47351;53.326;-6.298;2024-03-29T06:06:33;2.20;;;1.10;;
61487;SDS011;47351;53.326;-6.298;2024-03-29T06:09:24;4.90;;;1.40;;
61487;SDS011;47351;53.326;-6.298;2024-03-29T06:12:16;4.40;;;1.20;;
61487;SDS011;47351;53.326;-6.298;2024-03-29T06:15:08;7.30;;;1.30;;
61487;SDS011;47351;53.326;-6.298;2024-03-29T06:18:20;3.10;;;1.00;;
61487;SDS011;47351;53.326;-6.298;2024-03-29T06:21:15;7.80;;;1.20;;
61487;SDS011;47351;53.326;-6.298;2024-03-29T06:24:07;2.70;;;1.00;;
61487;SDS011;47351;53.326;-6.298;2024-03-29T06:27:06;3.00;;;1.00;;
61487;SDS011;47351;53.326;-6.298;2024-03-29T06:30:03;3.50;;;0.90;;
61487;SDS011;47351;53.326;-6.298;2024-03-29T06:33:03;1.80;;;0.90;;
61487;SDS011;47351;53.326;-6.298;2024-03-29T06:36:01;3.20;;;0.90;;
61487;SDS011;47351;53.326;-6.298;2024-03-29T06:38:53;4.60;;;0.90;;
61487;SDS011;47351;53.326;-6.298;2024-03-29T06:41:47;3.90;;;1.10;;
61487;SDS011;47351;53.326;-6.298;2024-03-29T06:44:42;4.80;;;1.00;;
61487;SDS011;47351;53.326;-6.298;2024-03-29T06:47:36;3.10;;;0.90;;
61487;SDS011;47351;53.326;-6.298;2024-03-29T06:50:35;5.20;;;1.10;;
61487;SDS011;47351;53.326;-6.298;2024-03-29T06:53:27;7.90;;;1.20;;
61487;SDS011;47351;53.326;-6.298;2024-03-29T06:56:19;8.30;;;1.10;;
61487;SDS011;47351;53.326;-6.298;2024-03-29T06:59:11;4.80;;;1.30;;
61487;SDS011;47351;53.326;-6.298;2024-03-29T07:02:03;5.60;;;1.50;;
61487;SDS011;47351;53.326;-6.298;2024-03-29T07:04:55;4.20;;;1.20;;
61487;SDS011;47351;53.326;-6.298;2024-03-29T07:07:46;5.00;;;1.20;;
61487;SDS011;47351;53.326;-6.298;2024-03-29T07:10:38;3.30;;;1.10;;
61487;SDS011;47351;53.326;-6.298;2024-03-29T07:13:32;5.30;;;1.40;;
61487;SDS011;47351;53.326;-6.298;2024-03-29T07:16:27;3.00;;;0.80;;
61487;SDS011;47351;53.326;-6.298;2024-03-29T07:19:19;5.10;;;1.00;;
61487;SDS011;47351;53.326;-6.298;2024-03-29T07:22:10;5.00;;;1.10;;
61487;SDS011;47351;53.326;-6.298;2024-03-29T07:25:15;4.70;;;1.20;;
61487;SDS011;47351;53.326;-6.298;2024-03-29T07:28:07;2.90;;;0.90;;
61487;SDS011;47351;53.326;-6.298;2024-03-29T07:31:04;3.60;;;0.60;;
61487;SDS011;47351;53.326;-6.298;2024-03-29T07:33:56;3.00;;;0.90;;
61487;SDS011;47351;53.326;-6.298;2024-03-29T07:36:48;3.50;;;0.90;;
61487;SDS011;47351;53.326;-6.298;2024-03-29T07:39:39;4.60;;;0.70;;
61487;SDS011;47351;53.326;-6.298;2024-03-29T07:42:31;3.50;;;1.00;;
61487;SDS011;47351;53.326;-6.298;2024-03-29T07:45:24;1.80;;;0.50;;
61487;SDS011;47351;53.326;-6.298;2024-03-29T07:48:16;3.10;;;0.70;;
61487;SDS011;47351;53.326;-6.298;2024-03-29T07:51:08;9.50;;;1.00;;
61487;SDS011;47351;53.326;-6.298;2024-03-29T07:53:59;3.10;;;0.80;;
61487;SDS011;47351;53.326;-6.298;2024-03-29T07:56:51;9.20;;;0.80;;
61487;SDS011;47351;53.326;-6.298;2024-03-29T07:59:43;2.10;;;0.70;;
61487;SDS011;47351;53.326;-6.298;2024-03-29T08:02:34;3.80;;;0.70;;
61487;SDS011;47351;53.326;-6.298;2024-03-29T08:05:27;5.00;;;1.20;;
61487;SDS011;47351;53.326;-6.298;2024-03-29T08:08:19;3.40;;;0.80;;
61487;SDS011;47351;53.326;-6.298;2024-03-29T08:11:11;4.00;;;1.20;;
61487;SDS011;47351;53.326;-6.298;2024-03-29T08:14:02;3.80;;;1.10;;
61487;SDS011;47351;53.326;-6.298;2024-03-29T08:16:54;7.40;;;1.10;;
61487;SDS011;47351;53.326;-6.298;2024-03-29T08:19:50;4.20;;;0.90;;
61487;SDS011;47351;53.326;-6.298;2024-03-29T08:22:42;2.20;;;0.80;;
61487;SDS011;47351;53.326;-6.298;2024-03-29T08:25:36;4.80;;;1.10;;
61487;SDS011;47351;53.326;-6.298;2024-03-29T08:28:28;3.90;;;0.80;;
61487;SDS011;47351;53.326;-6.298;2024-03-29T08:31:19;4.20;;;0.80;;
61487;SDS011;47351;53.326;-6.298;2024-03-29T08:34:11;3.50;;;0.70;;
61487;SDS011;47351;53.326;-6.298;2024-03-29T08:37:03;3.90;;;0.70;;
61487;SDS011;47351;53.326;-6.298;2024-03-29T08:39:57;4.20;;;0.90;;
61487;SDS011;47351;53.326;-6.298;2024-03-29T08:42:48;4.50;;;0.90;;
61487;SDS011;47351;53.326;-6.298;2024-03-29T08:45:40;4.30;;;0.80;;
61487;SDS011;47351;53.326;-6.298;2024-03-29T08:48:32;5.20;;;0.90;;
61487;SDS011;47351;53.326;-6.298;2024-03-29T08:51:24;5.10;;;1.00;;
61487;SDS011;47351;53.326;-6.298;2024-03-29T08:54:17;5.80;;;1.30;;
61487;SDS011;47351;53.326;-6.298;2024-03-29T08:57:09;5.00;;;0.90;;
61487;SDS011;47351;53.326;-6.298;2024-03-29T09:00:00;5.00;;;0.90;;
61487;SDS011;47351;53.326;-6.298;2024-03-29T09:02:53;4.90;;;0.90;;
61487;SDS011;47351;53.326;-6.298;2024-03-29T09:05:45;4.30;;;0.90;;
61487;SDS011;47351;53.326;-6.298;2024-03-29T09:08:36;5.80;;;1.00;;
61487;SDS011;47351;53.326;-6.298;2024-03-29T09:11:28;6.30;;;0.90;;
61487;SDS011;47351;53.326;-6.298;2024-03-29T09:14:19;4.80;;;1.00;;
61487;SDS011;47351;53.326;-6.298;2024-03-29T09:17:10;6.10;;;1.00;;
61487;SDS011;47351;53.326;-6.298;2024-03-29T09:20:02;7.00;;;1.10;;
61487;SDS011;47351;53.326;-6.298;2024-03-29T09:22:54;5.90;;;1.30;;
61487;SDS011;47351;53.326;-6.298;2024-03-29T09:25:46;7.10;;;1.20;;
61487;SDS011;47351;53.326;-6.298;2024-03-29T09:28:37;7.40;;;0.80;;
61487;SDS011;47351;53.326;-6.298;2024-03-29T09:31:28;6.50;;;1.20;;
61487;SDS011;47351;53.326;-6.298;2024-03-29T09:34:20;5.40;;;1.10;;
61487;SDS011;47351;53.326;-6.298;2024-03-29T09:37:12;7.20;;;1.00;;
61487;SDS011;47351;53.326;-6.298;2024-03-29T09:40:04;7.20;;;1.20;;
61487;SDS011;47351;53.326;-6.298;2024-03-29T09:42:57;6.30;;;1.40;;
61487;SDS011;47351;53.326;-6.298;2024-03-29T09:46:03;5.20;;;1.00;;
61487;SDS011;47351;53.326;-6.298;2024-03-29T09:48:55;4.50;;;1.00;;
61487;SDS011;47351;53.326;-6.298;2024-03-29T09:51:48;5.80;;;0.80;;
61487;SDS011;47351;53.326;-6.298;2024-03-29T09:54:40;3.50;;;0.90;;
61487;SDS011;47351;53.326;-6.298;2024-03-29T09:57:32;5.20;;;1.00;;
61487;SDS011;47351;53.326;-6.298;2024-03-29T10:00:25;4.30;;;0.80;;
61487;SDS011;47351;53.326;-6.298;2024-03-29T10:03:17;3.10;;;1.00;;
61487;SDS011;47351;53.326;-6.298;2024-03-29T10:06:09;5.10;;;0.80;;
61487;SDS011;47351;53.326;-6.298;2024-03-29T10:09:03;6.90;;;1.20;;
61487;SDS011;47351;53.326;-6.298;2024-03-29T10:11:55;6.60;;;1.10;;
61487;SDS011;47351;53.326;-6.298;2024-03-29T10:14:46;6.40;;;1.00;;
61487;SDS011;47351;53.326;-6.298;2024-03-29T10:17:44;6.90;;;1.20;;
61487;SDS011;47351;53.326;-6.298;2024-03-29T10:20:37;5.40;;;1.20;;
61487;SDS011;47351;53.326;-6.298;2024-03-29T10:23:29;7.20;;;1.40;;
61487;SDS011;47351;53.326;-6.298;2024-03-29T10:26:21;5.80;;;1.40;;
61487;SDS011;47351;53.326;-6.298;2024-03-29T10:29:12;7.50;;;1.10;;
61487;SDS011;47351;53.326;-6.298;2024-03-29T10:32:04;7.30;;;1.40;;
61487;SDS011;47351;53.326;-6.298;2024-03-29T10:34:57;7.30;;;1.20;;
61487;SDS011;47351;53.326;-6.298;2024-03-29T10:37:51;6.70;;;1.30;;
61487;SDS011;47351;53.326;-6.298;2024-03-29T10:40:43;6.20;;;1.20;;
61487;SDS011;47351;53.326;-6.298;2024-03-29T10:43:34;5.10;;;1.40;;
61487;SDS011;47351;53.326;-6.298;2024-03-29T10:46:28;8.60;;;1.70;;
61487;SDS011;47351;53.326;-6.298;2024-03-29T10:49:20;7.10;;;1.50;;
61487;SDS011;47351;53.326;-6.298;2024-03-29T10:52:13;6.70;;;1.30;;
61487;SDS011;47351;53.326;-6.298;2024-03-29T10:55:08;6.20;;;1.30;;
61487;SDS011;47351;53.326;-6.298;2024-03-29T10:58:03;9.20;;;1.30;;
61487;SDS011;47351;53.326;-6.298;2024-03-29T11:00:56;7.90;;;1.20;;
61487;SDS011;47351;53.326;-6.298;2024-03-29T11:03:49;7.00;;;1.30;;
61487;SDS011;47351;53.326;-6.298;2024-03-29T11:06:44;6.70;;;1.10;;
61487;SDS011;47351;53.326;-6.298;2024-03-29T11:09:39;7.60;;;2.40;;
61487;SDS011;47351;53.326;-6.298;2024-03-29T11:12:41;6.40;;;1.20;;
61487;SDS011;47351;53.326;-6.298;2024-03-29T11:15:48;11.90;;;1.40;;
61487;SDS011;47351;53.326;-6.298;2024-03-29T11:18:40;7.10;;;1.50;;
61487;SDS011;47351;53.326;-6.298;2024-03-29T11:21:35;6.80;;;1.30;;
61487;SDS011;47351;53.326;-6.298;2024-03-29T11:24:28;5.80;;;1.20;;
61487;SDS011;47351;53.326;-6.298;2024-03-29T11:27:23;6.10;;;1.20;;
61487;SDS011;47351;53.326;-6.298;2024-03-29T11:30:17;8.40;;;1.20;;
61487;SDS011;47351;53.326;-6.298;2024-03-29T11:33:19;9.80;;;1.50;;
61487;SDS011;47351;53.326;-6.298;2024-03-29T11:36:18;10.10;;;1.60;;
61487;SDS011;47351;53.326;-6.298;2024-03-29T11:39:19;6.80;;;2.10;;
61487;SDS011;47351;53.326;-6.298;2024-03-29T11:42:11;10.30;;;1.70;;
61487;SDS011;47351;53.326;-6.298;2024-03-29T11:45:04;7.60;;;1.40;;
61487;SDS011;47351;53.326;-6.298;2024-03-29T11:47:58;9.90;;;2.00;;
61487;SDS011;47351;53.326;-6.298;2024-03-29T11:50:57;6.60;;;1.20;;
61487;SDS011;47351;53.326;-6.298;2024-03-29T11:53:49;6.10;;;1.10;;
61487;SDS011;47351;53.326;-6.298;2024-03-29T11:56:41;6.50;;;1.20;;
61487;SDS011;47351;53.326;-6.298;2024-03-29T11:59:33;10.00;;;2.50;;
61487;SDS011;47351;53.326;-6.298;2024-03-29T12:02:27;6.60;;;1.40;;
61487;SDS011;47351;53.326;-6.298;2024-03-29T12:05:18;3.70;;;0.90;;
61487;SDS011;47351;53.326;-6.298;2024-03-29T12:08:10;7.40;;;1.00;;
61487;SDS011;47351;53.326;-6.298;2024-03-29T12:11:02;4.30;;;1.00;;
61487;SDS011;47351;53.326;-6.298;2024-03-29T12:13:55;4.00;;;0.90;;
61487;SDS011;47351;53.326;-6.298;2024-03-29T12:16:47;3.50;;;0.80;;
61487;SDS011;47351;53.326;-6.298;2024-03-29T12:19:39;3.20;;;0.70;;
61487;SDS011;47351;53.326;-6.298;2024-03-29T12:22:32;4.20;;;0.80;;
61487;SDS011;47351;53.326;-6.298;2024-03-29T12:25:24;3.00;;;0.70;;
61487;SDS011;47351;53.326;-6.298;2024-03-29T12:28:15;4.60;;;0.90;;
61487;SDS011;47351;53.326;-6.298;2024-03-29T12:31:10;4.30;;;0.90;;
61487;SDS011;47351;53.326;-6.298;2024-03-29T12:34:01;6.70;;;2.30;;
61487;SDS011;47351;53.326;-6.298;2024-03-29T12:36:58;4.90;;;1.00;;
61487;SDS011;47351;53.326;-6.298;2024-03-29T12:39:50;4.90;;;1.00;;
61487;SDS011;47351;53.326;-6.298;2024-03-29T12:42:44;5.80;;;1.20;;
61487;SDS011;47351;53.326;-6.298;2024-03-29T12:45:36;4.70;;;0.80;;
61487;SDS011;47351;53.326;-6.298;2024-03-29T12:48:30;4.30;;;0.90;;
61487;SDS011;47351;53.326;-6.298;2024-03-29T12:51:26;6.40;;;0.90;;
61487;SDS011;47351;53.326;-6.298;2024-03-29T12:54:19;6.80;;;1.10;;
61487;SDS011;47351;53.326;-6.298;2024-03-29T12:57:12;3.40;;;0.70;;
61487;SDS011;47351;53.326;-6.298;2024-03-29T13:00:04;4.50;;;1.00;;
61487;SDS011;47351;53.326;-6.298;2024-03-29T13:02:58;6.70;;;1.10;;
61487;SDS011;47351;53.326;-6.298;2024-03-29T13:05:50;5.50;;;1.20;;
61487;SDS011;47351;53.326;-6.298;2024-03-29T13:08:43;4.20;;;1.20;;
61487;SDS011;47351;53.326;-6.298;2024-03-29T13:11:34;6.30;;;1.80;;
61487;SDS011;47351;53.326;-6.298;2024-03-29T13:14:26;11.00;;;2.10;;
61487;SDS011;47351;53.326;-6.298;2024-03-29T13:17:18;7.30;;;1.40;;
61487;SDS011;47351;53.326;-6.298;2024-03-29T13:20:10;8.20;;;1.40;;
61487;SDS011;47351;53.326;-6.298;2024-03-29T13:23:02;8.10;;;1.50;;
61487;SDS011;47351;53.326;-6.298;2024-03-29T13:25:53;11.70;;;1.40;;
61487;SDS011;47351;53.326;-6.298;2024-03-29T13:28:46;6.70;;;1.30;;
61487;SDS011;47351;53.326;-6.298;2024-03-29T13:31:37;8.30;;;2.40;;
61487;SDS011;47351;53.326;-6.298;2024-03-29T13:34:28;10.70;;;1.70;;
61487;SDS011;47351;53.326;-6.298;2024-03-29T13:37:20;11.70;;;1.60;;
61487;SDS011;47351;53.326;-6.298;2024-03-29T13:40:15;8.50;;;1.40;;
61487;SDS011;47351;53.326;-6.298;2024-03-29T13:43:07;8.70;;;1.30;;
61487;SDS011;47351;53.326;-6.298;2024-03-29T13:45:58;8.00;;;1.40;;
61487;SDS011;47351;53.326;-6.298;2024-03-29T13:48:50;11.00;;;2.10;;
61487;SDS011;47351;53.326;-6.298;2024-03-29T13:51:41;6.50;;;1.50;;
61487;SDS011;47351;53.326;-6.298;2024-03-29T13:54:33;4.80;;;1.00;;
61487;SDS011;47351;53.326;-6.298;2024-03-29T13:57:25;4.80;;;1.10;;
61487;SDS011;47351;53.326;-6.298;2024-03-29T14:00:17;5.80;;;1.20;;
61487;SDS011;47351;53.326;-6.298;2024-03-29T14:03:08;5.50;;;1.30;;
61487;SDS011;47351;53.326;-6.298;2024-03-29T14:06:00;6.10;;;1.20;;
61487;SDS011;47351;53.326;-6.298;2024-03-29T14:08:53;6.40;;;1.30;;
61487;SDS011;47351;53.326;-6.298;2024-03-29T14:11:45;4.10;;;1.20;;
61487;SDS011;47351;53.326;-6.298;2024-03-29T14:14:37;6.10;;;1.30;;
61487;SDS011;47351;53.326;-6.298;2024-03-29T14:17:30;5.90;;;1.10;;
61487;SDS011;47351;53.326;-6.298;2024-03-29T14:20:21;15.50;;;8.80;;
61487;SDS011;47351;53.326;-6.298;2024-03-29T14:23:13;6.40;;;1.60;;
61487;SDS011;47351;53.326;-6.298;2024-03-29T14:26:07;5.80;;;1.60;;
61487;SDS011;47351;53.326;-6.298;2024-03-29T14:29:04;5.50;;;1.10;;
61487;SDS011;47351;53.326;-6.298;2024-03-29T14:31:55;5.30;;;1.10;;
61487;SDS011;47351;53.326;-6.298;2024-03-29T14:34:47;2.80;;;0.50;;
61487;SDS011;47351;53.326;-6.298;2024-03-29T14:37:38;3.50;;;0.70;;
61487;SDS011;47351;53.326;-6.298;2024-03-29T14:40:30;3.10;;;0.60;;
61487;SDS011;47351;53.326;-6.298;2024-03-29T14:43:21;1.90;;;0.50;;
61487;SDS011;47351;53.326;-6.298;2024-03-29T14:46:13;2.40;;;0.70;;
61487;SDS011;47351;53.326;-6.298;2024-03-29T14:49:06;3.70;;;0.80;;
61487;SDS011;47351;53.326;-6.298;2024-03-29T14:51:59;6.50;;;1.00;;
61487;SDS011;47351;53.326;-6.298;2024-03-29T14:54:51;6.50;;;0.80;;
61487;SDS011;47351;53.326;-6.298;2024-03-29T14:57:42;3.70;;;0.80;;
61487;SDS011;47351;53.326;-6.298;2024-03-29T15:00:35;2.30;;;1.10;;
61487;SDS011;47351;53.326;-6.298;2024-03-29T15:03:26;4.60;;;0.80;;
61487;SDS011;47351;53.326;-6.298;2024-03-29T15:06:18;3.10;;;0.60;;
61487;SDS011;47351;53.326;-6.298;2024-03-29T15:09:11;2.90;;;0.60;;
61487;SDS011;47351;53.326;-6.298;2024-03-29T15:12:03;2.50;;;0.60;;
61487;SDS011;47351;53.326;-6.298;2024-03-29T15:14:57;3.70;;;0.80;;
61487;SDS011;47351;53.326;-6.298;2024-03-29T15:17:49;7.00;;;2.70;;
61487;SDS011;47351;53.326;-6.298;2024-03-29T15:20:41;4.50;;;0.90;;
61487;SDS011;47351;53.326;-6.298;2024-03-29T15:23:42;3.60;;;0.90;;
61487;SDS011;47351;53.326;-6.298;2024-03-29T15:26:34;3.60;;;0.70;;
61487;SDS011;47351;53.326;-6.298;2024-03-29T15:29:26;2.10;;;0.60;;
61487;SDS011;47351;53.326;-6.298;2024-03-29T15:32:17;3.30;;;1.00;;
61487;SDS011;47351;53.326;-6.298;2024-03-29T15:35:09;4.50;;;1.00;;
61487;SDS011;47351;53.326;-6.298;2024-03-29T15:38:00;7.30;;;1.70;;
61487;SDS011;47351;53.326;-6.298;2024-03-29T15:40:54;4.60;;;1.10;;
61487;SDS011;47351;53.326;-6.298;2024-03-29T15:43:46;5.60;;;1.10;;
61487;SDS011;47351;53.326;-6.298;2024-03-29T15:46:37;4.30;;;0.80;;
61487;SDS011;47351;53.326;-6.298;2024-03-29T15:49:31;3.90;;;1.00;;
61487;SDS011;47351;53.326;-6.298;2024-03-29T15:52:23;3.40;;;1.10;;
61487;SDS011;47351;53.326;-6.298;2024-03-29T15:55:14;2.80;;;0.80;;
61487;SDS011;47351;53.326;-6.298;2024-03-29T15:58:06;4.40;;;0.80;;
61487;SDS011;47351;53.326;-6.298;2024-03-29T16:00:58;3.90;;;0.80;;
61487;SDS011;47351;53.326;-6.298;2024-03-29T16:03:49;3.60;;;0.80;;
61487;SDS011;47351;53.326;-6.298;2024-03-29T16:06:41;4.20;;;0.80;;
61487;SDS011;47351;53.326;-6.298;2024-03-29T16:09:33;3.10;;;0.40;;
61487;SDS011;47351;53.326;-6.298;2024-03-29T16:12:24;3.00;;;0.60;;
61487;SDS011;47351;53.326;-6.298;2024-03-29T16:15:16;3.80;;;0.90;;
61487;SDS011;47351;53.326;-6.298;2024-03-29T16:18:08;2.70;;;0.70;;
61487;SDS011;47351;53.326;-6.298;2024-03-29T16:21:00;4.70;;;0.80;;
61487;SDS011;47351;53.326;-6.298;2024-03-29T16:23:52;2.70;;;0.70;;
61487;SDS011;47351;53.326;-6.298;2024-03-29T16:26:44;3.50;;;0.70;;
61487;SDS011;47351;53.326;-6.298;2024-03-29T16:29:35;3.00;;;0.80;;
61487;SDS011;47351;53.326;-6.298;2024-03-29T16:32:28;2.70;;;0.80;;
61487;SDS011;47351;53.326;-6.298;2024-03-29T16:35:20;3.40;;;0.70;;
61487;SDS011;47351;53.326;-6.298;2024-03-29T16:38:12;4.70;;;1.20;;
61487;SDS011;47351;53.326;-6.298;2024-03-29T16:41:04;3.40;;;0.90;;
61487;SDS011;47351;53.326;-6.298;2024-03-29T16:43:55;2.90;;;0.90;;
61487;SDS011;47351;53.326;-6.298;2024-03-29T16:46:47;2.80;;;0.80;;
61487;SDS011;47351;53.326;-6.298;2024-03-29T16:49:38;3.00;;;0.80;;
61487;SDS011;47351;53.326;-6.298;2024-03-29T16:52:30;2.60;;;0.70;;
61487;SDS011;47351;53.326;-6.298;2024-03-29T16:55:21;4.10;;;1.10;;
61487;SDS011;47351;53.326;-6.298;2024-03-29T16:58:14;5.10;;;1.20;;
61487;SDS011;47351;53.326;-6.298;2024-03-29T17:01:05;7.60;;;1.10;;
61487;SDS011;47351;53.326;-6.298;2024-03-29T17:03:56;10.10;;;2.70;;
61487;SDS011;47351;53.326;-6.298;2024-03-29T17:06:48;5.70;;;1.30;;